sensor_id;sensor_type;location;lat;lon;timestamp;pressure;altitude;pressure_sealevel;temperature;humidity
23899;BME280;20544;50.018;20.010;2022-07-22T00:02:42;98877.25;;;21.59;77.71
23899;BME280;20544;50.018;20.010;2022-07-22T00:05:58;98870.53;;;21.62;77.39
23899;BME280;20544;50.018;20.010;2022-07-22T00:09:14;98864.07;;;21.63;77.52
23899;BME280;20544;50.018;20.010;2022-07-22T00:12:31;98865.70;;;21.64;77.32
23899;BME280;20544;50.018;20.010;2022-07-22T00:15:48;98863.81;;;21.64;77.78
23899;BME280;20544;50.018;20.010;2022-07-22T00:19:04;98864.33;;;21.61;78.57
23899;BME280;20544;50.018;20.010;2022-07-22T00:22:20;98867.43;;;21.53;78.86
23899;BME280;20544;50.018;20.010;2022-07-22T00:25:36;98882.44;;;21.44;79.18
23899;BME280;20544;50.018;20.010;2022-07-22T00:28:52;98885.24;;;21.32;84.52
23899;BME280;20544;50.018;20.010;2022-07-22T00:32:09;98882.74;;;21.25;88.23
23899;BME280;20544;50.018;20.010;2022-07-22T00:35:25;98876.45;;;21.20;88.25
23899;BME280;20544;50.018;20.010;2022-07-22T00:38:43;98869.80;;;21.05;84.19
23899;BME280;20544;50.018;20.010;2022-07-22T00:42:00;98865.73;;;21.03;82.66
23899;BME280;20544;50.018;20.010;2022-07-22T00:45:16;98880.20;;;20.96;84.73
23899;BME280;20544;50.018;20.010;2022-07-22T00:48:34;98881.99;;;20.91;87.14
23899;BME280;20544;50.018;20.010;2022-07-22T00:51:50;98873.25;;;20.83;88.86
23899;BME280;20544;50.018;20.010;2022-07-22T00:55:08;98863.72;;;20.59;93.63
23899;BME280;20544;50.018;20.010;2022-07-22T00:58:25;98862.71;;;20.31;93.72
23899;BME280;20544;50.018;20.010;2022-07-22T01:01:41;98865.88;;;20.11;96.02
23899;BME280;20544;50.018;20.010;2022-07-22T01:04:57;98856.95;;;19.93;99.14
23899;BME280;20544;50.018;20.010;2022-07-22T01:08:14;98859.47;;;19.83;99.64
23899;BME280;20544;50.018;20.010;2022-07-22T01:11:31;98857.27;;;19.68;100.00
23899;BME280;20544;50.018;20.010;2022-07-22T01:14:47;98856.50;;;19.55;100.00
23899;BME280;20544;50.018;20.010;2022-07-22T01:18:03;98858.75;;;19.47;100.00
23899;BME280;20544;50.018;20.010;2022-07-22T01:21:19;98861.99;;;19.49;100.00
23899;BME280;20544;50.018;20.010;2022-07-22T01:24:36;98862.23;;;19.47;100.00
23899;BME280;20544;50.018;20.010;2022-07-22T01:27:52;98858.64;;;19.42;100.00
23899;BME280;20544;50.018;20.010;2022-07-22T01:31:09;98858.20;;;19.21;100.00
23899;BME280;20544;50.018;20.010;2022-07-22T01:34:25;98857.16;;;19.10;100.00
23899;BME280;20544;50.018;20.010;2022-07-22T01:37:43;98853.35;;;18.94;100.00
23899;BME280;20544;50.018;20.010;2022-07-22T01:40:58;98853.91;;;18.96;100.00
23899;BME280;20544;50.018;20.010;2022-07-22T01:44:14;98860.13;;;18.97;100.00
23899;BME280;20544;50.018;20.010;2022-07-22T01:47:31;98857.64;;;18.83;100.00
23899;BME280;20544;50.018;20.010;2022-07-22T01:50:47;98845.01;;;18.84;100.00
23899;BME280;20544;50.018;20.010;2022-07-22T01:54:03;98855.98;;;18.70;100.00
23899;BME280;20544;50.018;20.010;2022-07-22T01:57:19;98849.45;;;18.66;100.00
23899;BME280;20544;50.018;20.010;2022-07-22T02:00:36;98839.87;;;18.70;100.00
23899;BME280;20544;50.018;20.010;2022-07-22T02:03:53;98843.97;;;18.61;100.00
23899;BME280;20544;50.018;20.010;2022-07-22T02:07:09;98852.02;;;18.61;100.00
23899;BME280;20544;50.018;20.010;2022-07-22T02:10:25;98857.27;;;18.68;100.00
23899;BME280;20544;50.018;20.010;2022-07-22T02:13:42;98864.64;;;18.72;100.00
23899;BME280;20544;50.018;20.010;2022-07-22T02:16:58;98874.45;;;18.79;100.00
23899;BME280;20544;50.018;20.010;2022-07-22T02:20:14;98867.68;;;18.76;100.00
23899;BME280;20544;50.018;20.010;2022-07-22T02:23:31;98872.58;;;18.67;100.00
23899;BME280;20544;50.018;20.010;2022-07-22T02:26:48;98880.40;;;18.69;100.00
23899;BME280;20544;50.018;20.010;2022-07-22T02:30:07;98877.02;;;18.73;100.00
23899;BME280;20544;50.018;20.010;2022-07-22T02:33:24;98874.69;;;18.77;100.00
23899;BME280;20544;50.018;20.010;2022-07-22T02:36:41;98869.08;;;18.79;100.00
23899;BME280;20544;50.018;20.010;2022-07-22T02:39:58;98866.39;;;18.79;100.00
23899;BME280;20544;50.018;20.010;2022-07-22T02:43:15;98863.70;;;18.79;100.00
23899;BME280;20544;50.018;20.010;2022-07-22T02:46:33;98871.77;;;18.67;100.00
23899;BME280;20544;50.018;20.010;2022-07-22T02:49:51;98871.77;;;18.67;100.00
23899;BME280;20544;50.018;20.010;2022-07-22T02:53:07;98875.63;;;18.71;100.00
23899;BME280;20544;50.018;20.010;2022-07-22T02:56:24;98877.83;;;18.74;100.00
23899;BME280;20544;50.018;20.010;2022-07-22T02:59:40;98877.95;;;18.67;100.00
23899;BME280;20544;50.018;20.010;2022-07-22T03:02:56;98875.86;;;18.69;100.00
23899;BME280;20544;50.018;20.010;2022-07-22T03:06:13;98873.38;;;18.68;100.00
23899;BME280;20544;50.018;20.010;2022-07-22T03:09:31;98875.50;;;18.66;100.00
23899;BME280;20544;50.018;20.010;2022-07-22T03:12:47;98884.73;;;18.58;100.00
23899;BME280;20544;50.018;20.010;2022-07-22T03:16:04;98889.95;;;18.53;100.00
23899;BME280;20544;50.018;20.010;2022-07-22T03:19:20;98897.44;;;18.51;100.00
23899;BME280;20544;50.018;20.010;2022-07-22T03:22:36;98910.63;;;18.52;100.00
23899;BME280;20544;50.018;20.010;2022-07-22T03:25:54;98917.52;;;18.60;100.00
23899;BME280;20544;50.018;20.010;2022-07-22T03:29:10;98913.91;;;18.66;100.00
23899;BME280;20544;50.018;20.010;2022-07-22T03:32:27;98919.08;;;18.80;100.00
23899;BME280;20544;50.018;20.010;2022-07-22T03:35:43;98920.53;;;18.94;100.00
23899;BME280;20544;50.018;20.010;2022-07-22T03:38:59;98920.27;;;19.07;100.00
23899;BME280;20544;50.018;20.010;2022-07-22T03:42:15;98922.73;;;19.21;100.00
23899;BME280;20544;50.018;20.010;2022-07-22T03:45:31;98915.95;;;19.30;100.00
23899;BME280;20544;50.018;20.010;2022-07-22T03:48:49;98916.97;;;19.41;100.00
23899;BME280;20544;50.018;20.010;2022-07-22T03:52:06;98916.86;;;19.48;100.00
23899;BME280;20544;50.018;20.010;2022-07-22T03:55:22;98915.67;;;19.55;100.00
23899;BME280;20544;50.018;20.010;2022-07-22T03:58:39;98923.34;;;19.64;100.00
23899;BME280;20544;50.018;20.010;2022-07-22T04:01:55;98924.88;;;19.71;100.00
23899;BME280;20544;50.018;20.010;2022-07-22T04:05:11;98928.81;;;19.81;100.00
23899;BME280;20544;50.018;20.010;2022-07-22T04:08:28;98929.28;;;19.90;100.00
23899;BME280;20544;50.018;20.010;2022-07-22T04:11:44;98924.58;;;19.97;100.00
23899;BME280;20544;50.018;20.010;2022-07-22T04:15:03;98926.90;;;20.05;100.00
23899;BME280;20544;50.018;20.010;2022-07-22T04:18:20;98928.38;;;20.13;100.00
23899;BME280;20544;50.018;20.010;2022-07-22T04:21:36;98922.83;;;20.19;100.00
23899;BME280;20544;50.018;20.010;2022-07-22T04:24:53;98927.01;;;20.27;100.00
23899;BME280;20544;50.018;20.010;2022-07-22T04:28:09;98930.70;;;20.38;100.00
23899;BME280;20544;50.018;20.010;2022-07-22T04:31:25;98938.15;;;20.48;100.00
23899;BME280;20544;50.018;20.010;2022-07-22T04:34:43;98934.56;;;20.59;100.00
23899;BME280;20544;50.018;20.010;2022-07-22T04:37:59;98938.03;;;20.72;100.00
23899;BME280;20544;50.018;20.010;2022-07-22T04:41:17;98933.05;;;20.80;100.00
23899;BME280;20544;50.018;20.010;2022-07-22T04:44:33;98934.84;;;20.92;100.00
23899;BME280;20544;50.018;20.010;2022-07-22T04:47:49;98941.77;;;21.05;100.00
23899;BME280;20544;50.018;20.010;2022-07-22T04:51:06;98942.48;;;21.17;100.00
23899;BME280;20544;50.018;20.010;2022-07-22T04:54:24;98941.59;;;21.28;100.00
23899;BME280;20544;50.018;20.010;2022-07-22T04:57:40;98939.58;;;21.41;100.00
23899;BME280;20544;50.018;20.010;2022-07-22T05:00:57;98941.11;;;21.54;100.00
23899;BME280;20544;50.018;20.010;2022-07-22T05:04:12;98946.41;;;21.65;100.00
23899;BME280;20544;50.018;20.010;2022-07-22T05:07:30;98945.45;;;21.77;100.00
23899;BME280;20544;50.018;20.010;2022-07-22T05:10:46;98939.42;;;21.92;99.16
23899;BME280;20544;50.018;20.010;2022-07-22T05:14:03;98935.79;;;22.03;100.00
23899;BME280;20544;50.018;20.010;2022-07-22T05:17:20;98938.91;;;22.17;98.31
23899;BME280;20544;50.018;20.010;2022-07-22T05:20:36;98938.23;;;22.32;97.29
23899;BME280;20544;50.018;20.010;2022-07-22T05:23:51;98946.24;;;22.49;95.72
23899;BME280;20544;50.018;20.010;2022-07-22T05:27:07;98942.86;;;22.64;96.93
23899;BME280;20544;50.018;20.010;2022-07-22T05:30:24;98946.24;;;22.82;93.93
23899;BME280;20544;50.018;20.010;2022-07-22T05:33:41;98948.30;;;23.02;95.36
23899;BME280;20544;50.018;20.010;2022-07-22T05:37:11;98951.42;;;23.21;92.04
23899;BME280;20544;50.018;20.010;2022-07-22T05:40:28;98953.70;;;23.39;91.25
23899;BME280;20544;50.018;20.010;2022-07-22T05:43:45;98963.52;;;23.56;89.59
23899;BME280;20544;50.018;20.010;2022-07-22T05:47:01;98966.55;;;23.70;88.83
23899;BME280;20544;50.018;20.010;2022-07-22T05:50:18;98969.34;;;23.85;87.30
23899;BME280;20544;50.018;20.010;2022-07-22T05:53:38;98969.41;;;23.96;85.61
23899;BME280;20544;50.018;20.010;2022-07-22T05:56:55;98977.83;;;24.04;84.70
23899;BME280;20544;50.018;20.010;2022-07-22T06:00:14;98971.89;;;24.08;84.16
23899;BME280;20544;50.018;20.010;2022-07-22T06:03:30;98972.42;;;24.10;84.38
23899;BME280;20544;50.018;20.010;2022-07-22T06:06:47;98970.80;;;24.14;84.60
23899;BME280;20544;50.018;20.010;2022-07-22T06:10:04;98971.91;;;24.13;85.75
23899;BME280;20544;50.018;20.010;2022-07-22T06:13:21;98971.91;;;24.13;87.59
23899;BME280;20544;50.018;20.010;2022-07-22T06:16:38;98967.80;;;24.05;84.12
23899;BME280;20544;50.018;20.010;2022-07-22T06:19:54;98967.50;;;23.96;83.74
23899;BME280;20544;50.018;20.010;2022-07-22T06:23:11;98973.75;;;23.97;85.05
23899;BME280;20544;50.018;20.010;2022-07-22T06:26:27;98975.09;;;23.94;85.39
23899;BME280;20544;50.018;20.010;2022-07-22T06:29:44;98976.44;;;23.92;85.85
23899;BME280;20544;50.018;20.010;2022-07-22T06:33:00;98978.33;;;23.96;85.03
23899;BME280;20544;50.018;20.010;2022-07-22T06:36:16;98988.94;;;24.03;84.09
23899;BME280;20544;50.018;20.010;2022-07-22T06:39:32;98981.63;;;24.09;84.91
23899;BME280;20544;50.018;20.010;2022-07-22T06:43:03;98980.03;;;24.13;82.11
23899;BME280;20544;50.018;20.010;2022-07-22T06:46:37;98972.72;;;24.18;81.32
23899;BME280;20544;50.018;20.010;2022-07-22T06:49:56;98981.69;;;24.29;82.23
23899;BME280;20544;50.018;20.010;2022-07-22T06:53:12;98967.88;;;24.36;82.26
23899;BME280;20544;50.018;20.010;2022-07-22T06:56:29;98970.06;;;24.44;81.72
23899;BME280;20544;50.018;20.010;2022-07-22T06:59:45;98967.91;;;24.51;81.46
23899;BME280;20544;50.018;20.010;2022-07-22T07:03:02;98967.91;;;24.57;81.85
23899;BME280;20544;50.018;20.010;2022-07-22T07:06:21;98977.16;;;24.66;83.41
23899;BME280;20544;50.018;20.010;2022-07-22T07:09:43;98981.25;;;24.79;79.64
23899;BME280;20544;50.018;20.010;2022-07-22T07:13:01;98985.57;;;24.95;78.64
23899;BME280;20544;50.018;20.010;2022-07-22T07:16:24;98993.69;;;25.11;76.48
23899;BME280;20544;50.018;20.010;2022-07-22T07:19:41;98992.05;;;25.25;76.58
23899;BME280;20544;50.018;20.010;2022-07-22T07:22:59;98992.59;;;25.43;80.45
23899;BME280;20544;50.018;20.010;2022-07-22T07:26:18;98991.20;;;25.50;75.77
23899;BME280;20544;50.018;20.010;2022-07-22T07:29:34;98993.66;;;25.57;73.62
23899;BME280;20544;50.018;20.010;2022-07-22T07:32:51;98996.05;;;25.69;72.38
23899;BME280;20544;50.018;20.010;2022-07-22T07:36:09;98988.14;;;25.78;70.76
23899;BME280;20544;50.018;20.010;2022-07-22T07:39:27;98987.83;;;25.90;76.34
23899;BME280;20544;50.018;20.010;2022-07-22T07:42:45;98983.37;;;26.20;72.19
23899;BME280;20544;50.018;20.010;2022-07-22T07:46:04;98997.69;;;26.36;70.55
23899;BME280;20544;50.018;20.010;2022-07-22T07:49:25;98995.35;;;26.58;71.90
23899;BME280;20544;50.018;20.010;2022-07-22T07:52:48;98989.88;;;26.63;70.60
23899;BME280;20544;50.018;20.010;2022-07-22T07:56:07;98994.17;;;26.75;68.95
23899;BME280;20544;50.018;20.010;2022-07-22T07:59:24;99001.78;;;27.07;67.94
23899;BME280;20544;50.018;20.010;2022-07-22T08:02:41;99007.61;;;27.25;65.82
23899;BME280;20544;50.018;20.010;2022-07-22T08:05:59;99000.91;;;27.47;66.92
23899;BME280;20544;50.018;20.010;2022-07-22T08:09:15;99004.88;;;27.79;65.70
23899;BME280;20544;50.018;20.010;2022-07-22T08:12:32;99006.31;;;27.95;63.78
23899;BME280;20544;50.018;20.010;2022-07-22T08:16:09;99007.87;;;28.01;63.39
23899;BME280;20544;50.018;20.010;2022-07-22T08:19:25;99017.17;;;28.00;65.35
23899;BME280;20544;50.018;20.010;2022-07-22T08:22:41;99020.81;;;28.15;67.97
23899;BME280;20544;50.018;20.010;2022-07-22T08:25:59;99010.97;;;28.38;64.72
23899;BME280;20544;50.018;20.010;2022-07-22T08:29:20;99012.21;;;28.46;62.97
23899;BME280;20544;50.018;20.010;2022-07-22T08:32:43;99017.55;;;28.75;63.93
23899;BME280;20544;50.018;20.010;2022-07-22T08:35:59;99022.78;;;28.71;60.50
23899;BME280;20544;50.018;20.010;2022-07-22T08:39:24;99024.75;;;28.47;60.33
23899;BME280;20544;50.018;20.010;2022-07-22T08:42:41;99024.67;;;28.52;60.87
23899;BME280;20544;50.018;20.010;2022-07-22T08:46:00;99027.78;;;28.45;60.28
23899;BME280;20544;50.018;20.010;2022-07-22T08:49:19;99027.17;;;28.29;60.67
23899;BME280;20544;50.018;20.010;2022-07-22T08:52:45;99032.24;;;28.17;63.60
23899;BME280;20544;50.018;20.010;2022-07-22T08:56:01;99034.81;;;28.08;61.51
23899;BME280;20544;50.018;20.010;2022-07-22T08:59:18;99035.36;;;28.29;60.93
23899;BME280;20544;50.018;20.010;2022-07-22T09:02:40;99032.78;;;28.38;60.95
23899;BME280;20544;50.018;20.010;2022-07-22T09:05:57;99038.92;;;28.68;59.68
23899;BME280;20544;50.018;20.010;2022-07-22T09:09:15;99039.33;;;28.94;59.02
23899;BME280;20544;50.018;20.010;2022-07-22T09:12:33;99045.44;;;29.38;57.30
23899;BME280;20544;50.018;20.010;2022-07-22T09:15:53;99038.50;;;29.60;57.72
23899;BME280;20544;50.018;20.010;2022-07-22T09:19:16;99036.25;;;29.76;56.54
23899;BME280;20544;50.018;20.010;2022-07-22T09:22:33;99053.06;;;29.69;56.64
23899;BME280;20544;50.018;20.010;2022-07-22T09:26:02;99037.47;;;29.56;57.14
23899;BME280;20544;50.018;20.010;2022-07-22T09:29:26;99038.45;;;29.32;57.90
23899;BME280;20544;50.018;20.010;2022-07-22T09:32:56;99041.79;;;29.10;59.20
23899;BME280;20544;50.018;20.010;2022-07-22T09:36:16;99032.24;;;28.93;58.92
23899;BME280;20544;50.018;20.010;2022-07-22T09:39:34;99039.59;;;28.79;59.46
23899;BME280;20544;50.018;20.010;2022-07-22T09:42:55;99045.23;;;28.63;60.67
23899;BME280;20544;50.018;20.010;2022-07-22T09:46:15;99033.23;;;28.45;63.10
23899;BME280;20544;50.018;20.010;2022-07-22T09:49:43;99038.95;;;28.44;64.10
23899;BME280;20544;50.018;20.010;2022-07-22T09:53:24;99038.69;;;28.45;63.74
23899;BME280;20544;50.018;20.010;2022-07-22T09:56:46;99036.03;;;28.40;63.37
23899;BME280;20544;50.018;20.010;2022-07-22T10:00:03;99026.45;;;28.43;62.82
23899;BME280;20544;50.018;20.010;2022-07-22T10:03:27;99031.08;;;28.42;62.77
23899;BME280;20544;50.018;20.010;2022-07-22T10:06:46;99030.84;;;28.38;66.45
23899;BME280;20544;50.018;20.010;2022-07-22T10:10:06;99034.40;;;28.58;62.34
23899;BME280;20544;50.018;20.010;2022-07-22T10:13:25;99032.72;;;28.81;62.60
23899;BME280;20544;50.018;20.010;2022-07-22T10:16:45;99030.13;;;28.90;62.32
23899;BME280;20544;50.018;20.010;2022-07-22T10:20:02;99033.42;;;29.06;61.63
23899;BME280;20544;50.018;20.010;2022-07-22T10:23:20;99033.91;;;29.08;65.02
23899;BME280;20544;50.018;20.010;2022-07-22T10:26:50;99037.47;;;29.09;63.64
23899;BME280;20544;50.018;20.010;2022-07-22T10:30:09;99036.88;;;29.26;64.54
23899;BME280;20544;50.018;20.010;2022-07-22T10:33:30;99030.67;;;29.39;65.47
23899;BME280;20544;50.018;20.010;2022-07-22T10:36:46;99035.35;;;29.19;63.11
23899;BME280;20544;50.018;20.010;2022-07-22T10:40:14;99033.33;;;29.11;62.48
23899;BME280;20544;50.018;20.010;2022-07-22T10:43:31;99022.99;;;29.08;62.80
23899;BME280;20544;50.018;20.010;2022-07-22T10:47:01;99031.36;;;29.31;63.44
23899;BME280;20544;50.018;20.010;2022-07-22T10:50:51;99020.64;;;29.34;63.24
23899;BME280;20544;50.018;20.010;2022-07-22T10:54:09;99025.12;;;29.44;64.58
23899;BME280;20544;50.018;20.010;2022-07-22T10:57:34;99029.05;;;29.38;61.82
23899;BME280;20544;50.018;20.010;2022-07-22T11:00:50;99018.02;;;29.29;62.71
23899;BME280;20544;50.018;20.010;2022-07-22T11:04:12;99021.97;;;29.37;63.25
23899;BME280;20544;50.018;20.010;2022-07-22T11:07:30;99007.61;;;29.31;62.29
23899;BME280;20544;50.018;20.010;2022-07-22T11:10:53;99005.53;;;29.23;62.81
23899;BME280;20544;50.018;20.010;2022-07-22T11:14:20;99004.73;;;29.23;62.38
23899;BME280;20544;50.018;20.010;2022-07-22T11:17:40;99002.70;;;29.28;62.52
23899;BME280;20544;50.018;20.010;2022-07-22T11:20:58;99003.77;;;29.32;62.41
23899;BME280;20544;50.018;20.010;2022-07-22T11:24:17;98998.90;;;29.29;63.06
23899;BME280;20544;50.018;20.010;2022-07-22T11:27:34;98993.23;;;29.40;64.81
23899;BME280;20544;50.018;20.010;2022-07-22T11:31:05;98998.00;;;29.34;63.98
23899;BME280;20544;50.018;20.010;2022-07-22T11:34:28;98994.03;;;29.26;63.30
23899;BME280;20544;50.018;20.010;2022-07-22T11:37:44;98983.36;;;29.11;63.93
23899;BME280;20544;50.018;20.010;2022-07-22T11:41:10;98989.75;;;29.06;65.97
23899;BME280;20544;50.018;20.010;2022-07-22T11:44:28;98987.02;;;29.06;69.17
23899;BME280;20544;50.018;20.010;2022-07-22T11:47:52;98980.02;;;29.00;65.00
23899;BME280;20544;50.018;20.010;2022-07-22T11:54:12;98974.35;;;28.96;65.49
23899;BME280;20544;50.018;20.010;2022-07-22T11:57:28;98971.63;;;28.96;66.08
23899;BME280;20544;50.018;20.010;2022-07-22T12:00:45;98962.70;;;28.91;65.75
23899;BME280;20544;50.018;20.010;2022-07-22T12:04:03;98961.29;;;28.93;65.13
23899;BME280;20544;50.018;20.010;2022-07-22T12:07:20;98956.66;;;28.94;66.33
23899;BME280;20544;50.018;20.010;2022-07-22T12:10:36;98958.98;;;29.00;67.29
23899;BME280;20544;50.018;20.010;2022-07-22T12:13:54;98955.36;;;29.05;69.04
23899;BME280;20544;50.018;20.010;2022-07-22T12:17:11;98952.63;;;29.05;66.70
23899;BME280;20544;50.018;20.010;2022-07-22T12:20:30;98939.48;;;29.07;67.52
23899;BME280;20544;50.018;20.010;2022-07-22T12:23:57;98937.78;;;29.11;67.33
23899;BME280;20544;50.018;20.010;2022-07-22T12:27:17;98932.91;;;29.08;68.19
23899;BME280;20544;50.018;20.010;2022-07-22T12:30:34;98931.29;;;29.07;68.25
23899;BME280;20544;50.018;20.010;2022-07-22T12:33:54;98925.55;;;29.09;69.54
23899;BME280;20544;50.018;20.010;2022-07-22T12:37:19;98917.05;;;29.10;70.78
23899;BME280;20544;50.018;20.010;2022-07-22T12:40:37;98911.91;;;29.09;70.21
23899;BME280;20544;50.018;20.010;2022-07-22T12:43:54;98914.33;;;29.10;70.59
23899;BME280;20544;50.018;20.010;2022-07-22T12:47:10;98909.97;;;29.09;67.03
23899;BME280;20544;50.018;20.010;2022-07-22T12:50:28;98910.77;;;29.10;67.48
23899;BME280;20544;50.018;20.010;2022-07-22T12:53:46;98910.28;;;29.08;68.15
23899;BME280;20544;50.018;20.010;2022-07-22T12:57:03;98903.71;;;29.09;69.62
23899;BME280;20544;50.018;20.010;2022-07-22T13:00:21;98905.13;;;29.06;68.60
23899;BME280;20544;50.018;20.010;2022-07-22T13:03:38;98898.84;;;29.05;70.02
23899;BME280;20544;50.018;20.010;2022-07-22T13:06:54;98890.66;;;29.05;68.49
23899;BME280;20544;50.018;20.010;2022-07-22T13:10:13;98891.76;;;29.04;69.66
23899;BME280;20544;50.018;20.010;2022-07-22T13:13:30;98886.09;;;29.01;68.76
23899;BME280;20544;50.018;20.010;2022-07-22T13:16:47;98888.61;;;28.97;67.74
23899;BME280;20544;50.018;20.010;2022-07-22T13:20:04;98891.65;;;28.96;64.90
23899;BME280;20544;50.018;20.010;2022-07-22T13:23:21;98888.34;;;28.99;63.78
23899;BME280;20544;50.018;20.010;2022-07-22T13:26:39;98886.71;;;28.98;65.72
23899;BME280;20544;50.018;20.010;2022-07-22T13:29:55;98881.56;;;28.96;65.62
23899;BME280;20544;50.018;20.010;2022-07-22T13:33:11;98874.17;;;28.97;65.13
23899;BME280;20544;50.018;20.010;2022-07-22T13:36:27;98873.97;;;28.93;65.77
23899;BME280;20544;50.018;20.010;2022-07-22T13:39:45;98875.69;;;28.89;66.30
23899;BME280;20544;50.018;20.010;2022-07-22T13:43:01;98872.44;;;28.87;66.30
23899;BME280;20544;50.018;20.010;2022-07-22T13:46:20;98869.22;;;28.85;64.76
23899;BME280;20544;50.018;20.010;2022-07-22T13:49:37;98870.54;;;28.87;63.63
23899;BME280;20544;50.018;20.010;2022-07-22T13:52:57;98858.00;;;28.86;63.37
23899;BME280;20544;50.018;20.010;2022-07-22T13:56:13;98857.48;;;28.84;63.54
23899;BME280;20544;50.018;20.010;2022-07-22T13:59:30;98857.79;;;28.83;64.31
23899;BME280;20544;50.018;20.010;2022-07-22T14:02:47;98850.50;;;28.78;64.93
23899;BME280;20544;50.018;20.010;2022-07-22T14:06:04;98860.62;;;28.78;64.30
23899;BME280;20544;50.018;20.010;2022-07-22T14:09:21;98843.42;;;28.77;64.65
23899;BME280;20544;50.018;20.010;2022-07-22T14:12:40;98846.45;;;28.76;64.63
23899;BME280;20544;50.018;20.010;2022-07-22T14:15:56;98840.48;;;28.73;65.36
23899;BME280;20544;50.018;20.010;2022-07-22T14:19:18;98841.09;;;28.70;65.67
23899;BME280;20544;50.018;20.010;2022-07-22T14:22:35;98845.23;;;28.68;64.88
23899;BME280;20544;50.018;20.010;2022-07-22T14:25:51;98838.13;;;28.67;65.52
23899;BME280;20544;50.018;20.010;2022-07-22T14:29:08;98837.61;;;28.65;64.72
23899;BME280;20544;50.018;20.010;2022-07-22T14:32:24;98836.51;;;28.66;63.53
23899;BME280;20544;50.018;20.010;2022-07-22T14:35:40;98837.92;;;28.63;63.61
23899;BME280;20544;50.018;20.010;2022-07-22T14:38:57;98839.84;;;28.63;64.22
23899;BME280;20544;50.018;20.010;2022-07-22T14:42:13;98840.95;;;28.62;64.13
23899;BME280;20544;50.018;20.010;2022-07-22T14:45:29;98836.09;;;28.58;64.76
23899;BME280;20544;50.018;20.010;2022-07-22T14:48:45;98835.59;;;28.56;64.17
23899;BME280;20544;50.018;20.010;2022-07-22T14:52:02;98832.56;;;28.58;60.96
23899;BME280;20544;50.018;20.010;2022-07-22T14:55:19;98843.38;;;28.63;62.56
23899;BME280;20544;50.018;20.010;2022-07-22T14:58:35;98847.14;;;28.67;62.35
23899;BME280;20544;50.018;20.010;2022-07-22T15:01:52;98847.14;;;28.67;63.16
23899;BME280;20544;50.018;20.010;2022-07-22T15:05:09;98847.66;;;28.69;62.22
23899;BME280;20544;50.018;20.010;2022-07-22T15:08:26;98853.64;;;28.71;62.59
23899;BME280;20544;50.018;20.010;2022-07-22T15:11:42;98847.35;;;28.71;62.38
23899;BME280;20544;50.018;20.010;2022-07-22T15:14:58;98841.09;;;28.70;62.54
23899;BME280;20544;50.018;20.010;2022-07-22T15:18:14;98842.41;;;28.73;62.46
23899;BME280;20544;50.018;20.010;2022-07-22T15:21:30;98832.72;;;28.81;61.87
23899;BME280;20544;50.018;20.010;2022-07-22T15:24:50;98840.59;;;28.82;61.66
23899;BME280;20544;50.018;20.010;2022-07-22T15:28:13;98841.73;;;28.81;61.41
23899;BME280;20544;50.018;20.010;2022-07-22T15:31:31;98842.42;;;28.87;60.54
23899;BME280;20544;50.018;20.010;2022-07-22T15:34:48;98842.05;;;28.94;60.61
23899;BME280;20544;50.018;20.010;2022-07-22T15:38:04;98838.69;;;28.97;60.87
23899;BME280;20544;50.018;20.010;2022-07-22T15:41:21;98832.23;;;29.07;60.57
23899;BME280;20544;50.018;20.010;2022-07-22T15:44:37;98833.54;;;29.09;60.47
23899;BME280;20544;50.018;20.010;2022-07-22T15:47:53;98837.06;;;29.10;60.43
23899;BME280;20544;50.018;20.010;2022-07-22T15:51:10;98827.28;;;29.09;60.59
23899;BME280;20544;50.018;20.010;2022-07-22T15:54:28;98823.84;;;29.03;60.41
23899;BME280;20544;50.018;20.010;2022-07-22T15:57:46;98833.75;;;28.99;60.84
23899;BME280;20544;50.018;20.010;2022-07-22T16:01:16;98826.98;;;28.96;60.83
23899;BME280;20544;50.018;20.010;2022-07-22T16:04:34;98823.42;;;28.96;59.83
23899;BME280;20544;50.018;20.010;2022-07-22T16:07:51;98821.21;;;28.98;59.97
23899;BME280;20544;50.018;20.010;2022-07-22T16:11:07;98814.44;;;28.95;60.41
23899;BME280;20544;50.018;20.010;2022-07-22T16:14:24;98815.86;;;28.93;60.68
23899;BME280;20544;50.018;20.010;2022-07-22T16:17:41;98824.84;;;28.93;59.61
23899;BME280;20544;50.018;20.010;2022-07-22T16:20:58;98826.88;;;29.01;59.60
23899;BME280;20544;50.018;20.010;2022-07-22T16:24:20;98825.66;;;29.08;59.00
23899;BME280;20544;50.018;20.010;2022-07-22T16:27:39;98828.19;;;29.04;59.87
23899;BME280;20544;50.018;20.010;2022-07-22T16:30:55;98831.51;;;29.01;59.65
23899;BME280;20544;50.018;20.010;2022-07-22T16:34:18;98833.44;;;29.00;59.96
23899;BME280;20544;50.018;20.010;2022-07-22T16:37:35;98835.97;;;28.97;59.69
23899;BME280;20544;50.018;20.010;2022-07-22T16:40:53;98840.63;;;28.96;59.75
23899;BME280;20544;50.018;20.010;2022-07-22T16:44:09;98839.00;;;28.95;60.54
23899;BME280;20544;50.018;20.010;2022-07-22T16:47:25;98829.40;;;28.98;60.62
23899;BME280;20544;50.018;20.010;2022-07-22T16:50:41;98827.47;;;28.98;60.39
23899;BME280;20544;50.018;20.010;2022-07-22T16:53:58;98841.21;;;29.07;59.18
23899;BME280;20544;50.018;20.010;2022-07-22T16:57:15;98843.84;;;29.12;59.55
23899;BME280;20544;50.018;20.010;2022-07-22T17:00:33;98842.95;;;29.31;56.40
23899;BME280;20544;50.018;20.010;2022-07-22T17:03:51;98832.63;;;29.28;56.76
23899;BME280;20544;50.018;20.010;2022-07-22T17:07:07;98850.34;;;29.30;56.14
23899;BME280;20544;50.018;20.010;2022-07-22T17:10:24;98829.61;;;29.29;56.58
23899;BME280;20544;50.018;20.010;2022-07-22T17:13:40;98835.15;;;29.24;57.00
23899;BME280;20544;50.018;20.010;2022-07-22T17:16:58;98828.97;;;29.18;56.80